sensor_id;sensor_type;location;lat;lon;timestamp;P1;durP1;ratioP1;P2;durP2;ratioP2
19406;SDS011;9839;53.364;-1.204;2023-05-27T00:02:06;13.50;;;3.55;;
19406;SDS011;9839;53.364;-1.204;2023-05-27T00:04:31;11.60;;;3.65;;
19406;SDS011;9839;53.364;-1.204;2023-05-27T00:06:57;14.23;;;3.08;;
19406;SDS011;9839;53.364;-1.204;2023-05-27T00:09:22;15.80;;;3.53;;
19406;SDS011;9839;53.364;-1.204;2023-05-27T00:11:48;12.70;;;3.17;;
19406;SDS011;9839;53.364;-1.204;2023-05-27T00:14:13;15.77;;;3.53;;
19406;SDS011;9839;53.364;-1.204;2023-05-27T00:16:39;12.32;;;3.42;;
19406;SDS011;9839;53.364;-1.204;2023-05-27T00:19:04;11.60;;;3.42;;
19406;SDS011;9839;53.364;-1.204;2023-05-27T00:21:30;12.10;;;3.05;;
19406;SDS011;9839;53.364;-1.204;2023-05-27T00:23:55;19.92;;;3.70;;
19406;SDS011;9839;53.364;-1.204;2023-05-27T00:26:22;22.80;;;6.72;;
19406;SDS011;9839;53.364;-1.204;2023-05-27T00:28:48;33.92;;;17.10;;
19406;SDS011;9839;53.364;-1.204;2023-05-27T00:31:14;38.17;;;18.08;;
19406;SDS011;9839;53.364;-1.204;2023-05-27T00:33:40;26.90;;;10.15;;
19406;SDS011;9839;53.364;-1.204;2023-05-27T00:36:05;23.08;;;6.93;;
19406;SDS011;9839;53.364;-1.204;2023-05-27T00:38:31;19.40;;;4.57;;
19406;SDS011;9839;53.364;-1.204;2023-05-27T00:40:56;10.27;;;4.22;;
19406;SDS011;9839;53.364;-1.204;2023-05-27T00:43:25;15.40;;;3.75;;
19406;SDS011;9839;53.364;-1.204;2023-05-27T00:45:50;19.33;;;4.00;;
19406;SDS011;9839;53.364;-1.204;2023-05-27T00:48:16;10.00;;;4.07;;
19406;SDS011;9839;53.364;-1.204;2023-05-27T00:50:41;16.90;;;3.28;;
19406;SDS011;9839;53.364;-1.204;2023-05-27T00:53:07;18.50;;;3.92;;
19406;SDS011;9839;53.364;-1.204;2023-05-27T00:55:32;17.33;;;3.85;;
19406;SDS011;9839;53.364;-1.204;2023-05-27T00:57:58;22.95;;;3.83;;
19406;SDS011;9839;53.364;-1.204;2023-05-27T01:00:24;11.95;;;4.10;;
19406;SDS011;9839;53.364;-1.204;2023-05-27T01:02:50;17.30;;;3.72;;
19406;SDS011;9839;53.364;-1.204;2023-05-27T01:05:16;18.60;;;3.55;;
19406;SDS011;9839;53.364;-1.204;2023-05-27T01:10:23;18.13;;;3.85;;
19406;SDS011;9839;53.364;-1.204;2023-05-27T01:12:55;20.27;;;3.50;;
19406;SDS011;9839;53.364;-1.204;2023-05-27T01:15:29;15.05;;;4.43;;
19406;SDS011;9839;53.364;-1.204;2023-05-27T01:17:56;16.98;;;4.10;;
19406;SDS011;9839;53.364;-1.204;2023-05-27T01:20:21;12.43;;;3.55;;
19406;SDS011;9839;53.364;-1.204;2023-05-27T01:22:48;14.38;;;4.20;;
19406;SDS011;9839;53.364;-1.204;2023-05-27T01:25:17;16.40;;;4.20;;
19406;SDS011;9839;53.364;-1.204;2023-05-27T01:27:44;12.15;;;3.40;;
19406;SDS011;9839;53.364;-1.204;2023-05-27T01:30:10;16.85;;;3.63;;
19406;SDS011;9839;53.364;-1.204;2023-05-27T01:37:51;16.58;;;4.03;;
19406;SDS011;9839;53.364;-1.204;2023-05-27T01:40:17;12.40;;;3.22;;
19406;SDS011;9839;53.364;-1.204;2023-05-27T01:42:43;15.67;;;3.87;;
19406;SDS011;9839;53.364;-1.204;2023-05-27T01:45:09;20.37;;;3.70;;
19406;SDS011;9839;53.364;-1.204;2023-05-27T01:47:35;18.50;;;4.10;;
19406;SDS011;9839;53.364;-1.204;2023-05-27T01:50:01;10.23;;;3.20;;
19406;SDS011;9839;53.364;-1.204;2023-05-27T01:52:27;17.42;;;4.15;;
19406;SDS011;9839;53.364;-1.204;2023-05-27T01:54:52;15.33;;;3.40;;
19406;SDS011;9839;53.364;-1.204;2023-05-27T01:57:18;17.50;;;3.67;;
19406;SDS011;9839;53.364;-1.204;2023-05-27T01:59:44;19.10;;;4.37;;
19406;SDS011;9839;53.364;-1.204;2023-05-27T02:02:10;19.48;;;4.13;;
19406;SDS011;9839;53.364;-1.204;2023-05-27T02:04:35;16.07;;;4.60;;
19406;SDS011;9839;53.364;-1.204;2023-05-27T02:07:01;13.60;;;4.75;;
19406;SDS011;9839;53.364;-1.204;2023-05-27T02:09:26;15.50;;;4.22;;
19406;SDS011;9839;53.364;-1.204;2023-05-27T02:11:52;19.13;;;5.10;;
19406;SDS011;9839;53.364;-1.204;2023-05-27T02:14:17;24.80;;;5.50;;
19406;SDS011;9839;53.364;-1.204;2023-05-27T02:16:43;27.83;;;4.87;;
19406;SDS011;9839;53.364;-1.204;2023-05-27T02:19:09;15.57;;;5.63;;
19406;SDS011;9839;53.364;-1.204;2023-05-27T02:21:34;22.50;;;6.03;;
19406;SDS011;9839;53.364;-1.204;2023-05-27T02:24:03;20.65;;;7.10;;
19406;SDS011;9839;53.364;-1.204;2023-05-27T02:26:28;16.88;;;6.55;;
19406;SDS011;9839;53.364;-1.204;2023-05-27T02:28:54;21.35;;;6.72;;
19406;SDS011;9839;53.364;-1.204;2023-05-27T02:31:19;18.35;;;5.63;;
19406;SDS011;9839;53.364;-1.204;2023-05-27T02:33:45;14.53;;;5.50;;
19406;SDS011;9839;53.364;-1.204;2023-05-27T02:36:11;17.02;;;4.75;;
19406;SDS011;9839;53.364;-1.204;2023-05-27T02:38:37;12.50;;;4.80;;
19406;SDS011;9839;53.364;-1.204;2023-05-27T02:41:02;16.80;;;4.70;;
19406;SDS011;9839;53.364;-1.204;2023-05-27T02:43:28;15.45;;;4.53;;
19406;SDS011;9839;53.364;-1.204;2023-05-27T02:45:53;16.27;;;4.20;;
19406;SDS011;9839;53.364;-1.204;2023-05-27T02:48:19;18.07;;;4.13;;
19406;SDS011;9839;53.364;-1.204;2023-05-27T02:50:44;15.73;;;4.30;;
19406;SDS011;9839;53.364;-1.204;2023-05-27T02:53:10;9.60;;;3.47;;
19406;SDS011;9839;53.364;-1.204;2023-05-27T02:55:35;14.67;;;3.80;;
19406;SDS011;9839;53.364;-1.204;2023-05-27T02:58:01;14.20;;;4.13;;
19406;SDS011;9839;53.364;-1.204;2023-05-27T03:00:27;14.30;;;3.90;;
19406;SDS011;9839;53.364;-1.204;2023-05-27T03:02:53;12.25;;;3.55;;
19406;SDS011;9839;53.364;-1.204;2023-05-27T03:05:18;17.83;;;4.27;;
19406;SDS011;9839;53.364;-1.204;2023-05-27T03:07:43;18.13;;;4.13;;
19406;SDS011;9839;53.364;-1.204;2023-05-27T03:10:10;11.67;;;4.00;;
19406;SDS011;9839;53.364;-1.204;2023-05-27T03:12:35;17.73;;;4.50;;
19406;SDS011;9839;53.364;-1.204;2023-05-27T03:15:00;13.17;;;3.80;;
19406;SDS011;9839;53.364;-1.204;2023-05-27T03:17:26;12.50;;;4.18;;
19406;SDS011;9839;53.364;-1.204;2023-05-27T03:19:51;15.60;;;4.13;;
19406;SDS011;9839;53.364;-1.204;2023-05-27T03:22:17;13.57;;;4.10;;
19406;SDS011;9839;53.364;-1.204;2023-05-27T03:24:42;13.20;;;3.53;;
19406;SDS011;9839;53.364;-1.204;2023-05-27T03:27:08;12.50;;;3.93;;
19406;SDS011;9839;53.364;-1.204;2023-05-27T03:29:33;14.87;;;4.20;;
19406;SDS011;9839;53.364;-1.204;2023-05-27T03:31:59;19.43;;;4.40;;
19406;SDS011;9839;53.364;-1.204;2023-05-27T03:34:25;14.80;;;4.20;;
19406;SDS011;9839;53.364;-1.204;2023-05-27T03:36:50;9.67;;;3.80;;
19406;SDS011;9839;53.364;-1.204;2023-05-27T03:39:16;24.53;;;5.17;;
19406;SDS011;9839;53.364;-1.204;2023-05-27T03:41:42;25.97;;;5.80;;
19406;SDS011;9839;53.364;-1.204;2023-05-27T03:44:08;17.60;;;4.33;;
19406;SDS011;9839;53.364;-1.204;2023-05-27T03:46:33;11.82;;;4.03;;
19406;SDS011;9839;53.364;-1.204;2023-05-27T03:48:59;18.30;;;4.60;;
19406;SDS011;9839;53.364;-1.204;2023-05-27T03:51:25;18.50;;;4.37;;
19406;SDS011;9839;53.364;-1.204;2023-05-27T03:53:50;21.43;;;4.83;;
19406;SDS011;9839;53.364;-1.204;2023-05-27T03:56:16;14.90;;;4.93;;
19406;SDS011;9839;53.364;-1.204;2023-05-27T03:58:41;15.00;;;5.40;;
19406;SDS011;9839;53.364;-1.204;2023-05-27T04:01:07;15.63;;;4.63;;
19406;SDS011;9839;53.364;-1.204;2023-05-27T04:03:33;23.13;;;4.67;;
19406;SDS011;9839;53.364;-1.204;2023-05-27T04:05:59;12.90;;;3.60;;
19406;SDS011;9839;53.364;-1.204;2023-05-27T04:08:24;15.60;;;4.07;;
19406;SDS011;9839;53.364;-1.204;2023-05-27T04:10:54;18.83;;;4.07;;
19406;SDS011;9839;53.364;-1.204;2023-05-27T04:13:20;10.43;;;3.07;;
19406;SDS011;9839;53.364;-1.204;2023-05-27T04:15:55;12.23;;;3.17;;
19406;SDS011;9839;53.364;-1.204;2023-05-27T04:18:22;13.67;;;3.27;;
19406;SDS011;9839;53.364;-1.204;2023-05-27T04:20:47;12.93;;;3.57;;
19406;SDS011;9839;53.364;-1.204;2023-05-27T04:23:15;12.07;;;3.47;;
19406;SDS011;9839;53.364;-1.204;2023-05-27T04:25:41;14.13;;;4.07;;
19406;SDS011;9839;53.364;-1.204;2023-05-27T04:28:06;18.00;;;3.97;;
19406;SDS011;9839;53.364;-1.204;2023-05-27T04:30:33;11.17;;;4.30;;
19406;SDS011;9839;53.364;-1.204;2023-05-27T04:33:00;18.03;;;4.07;;
19406;SDS011;9839;53.364;-1.204;2023-05-27T04:35:25;10.90;;;3.70;;
19406;SDS011;9839;53.364;-1.204;2023-05-27T04:37:51;12.90;;;4.00;;
19406;SDS011;9839;53.364;-1.204;2023-05-27T04:40:16;16.27;;;4.03;;
19406;SDS011;9839;53.364;-1.204;2023-05-27T04:42:42;18.13;;;4.47;;
19406;SDS011;9839;53.364;-1.204;2023-05-27T04:45:09;12.80;;;4.67;;
19406;SDS011;9839;53.364;-1.204;2023-05-27T04:47:36;15.97;;;3.90;;
19406;SDS011;9839;53.364;-1.204;2023-05-27T04:50:05;11.23;;;3.90;;
19406;SDS011;9839;53.364;-1.204;2023-05-27T04:52:33;13.43;;;4.47;;
19406;SDS011;9839;53.364;-1.204;2023-05-27T04:55:05;19.37;;;4.10;;
19406;SDS011;9839;53.364;-1.204;2023-05-27T04:57:32;14.33;;;4.03;;
19406;SDS011;9839;53.364;-1.204;2023-05-27T04:59:58;14.77;;;4.63;;
19406;SDS011;9839;53.364;-1.204;2023-05-27T05:02:43;15.10;;;4.00;;
19406;SDS011;9839;53.364;-1.204;2023-05-27T05:05:11;14.57;;;4.00;;
19406;SDS011;9839;53.364;-1.204;2023-05-27T05:07:37;12.83;;;4.00;;
19406;SDS011;9839;53.364;-1.204;2023-05-27T05:10:05;16.20;;;3.80;;
19406;SDS011;9839;53.364;-1.204;2023-05-27T05:12:34;12.83;;;4.13;;
19406;SDS011;9839;53.364;-1.204;2023-05-27T05:15:00;16.33;;;4.63;;
19406;SDS011;9839;53.364;-1.204;2023-05-27T05:17:26;12.33;;;3.87;;
19406;SDS011;9839;53.364;-1.204;2023-05-27T05:19:52;9.40;;;3.20;;
19406;SDS011;9839;53.364;-1.204;2023-05-27T05:22:18;10.03;;;3.33;;
19406;SDS011;9839;53.364;-1.204;2023-05-27T05:24:47;14.27;;;4.90;;
19406;SDS011;9839;53.364;-1.204;2023-05-27T05:27:12;15.30;;;3.88;;
19406;SDS011;9839;53.364;-1.204;2023-05-27T05:29:38;12.05;;;3.20;;
19406;SDS011;9839;53.364;-1.204;2023-05-27T05:32:03;10.33;;;3.17;;
19406;SDS011;9839;53.364;-1.204;2023-05-27T05:34:29;15.98;;;4.20;;
19406;SDS011;9839;53.364;-1.204;2023-05-27T05:36:55;13.57;;;3.75;;
19406;SDS011;9839;53.364;-1.204;2023-05-27T05:39:20;10.43;;;3.00;;
19406;SDS011;9839;53.364;-1.204;2023-05-27T05:41:46;14.48;;;3.67;;
19406;SDS011;9839;53.364;-1.204;2023-05-27T05:44:12;19.42;;;3.75;;
19406;SDS011;9839;53.364;-1.204;2023-05-27T05:46:37;15.10;;;3.63;;
19406;SDS011;9839;53.364;-1.204;2023-05-27T05:49:03;12.18;;;3.10;;
19406;SDS011;9839;53.364;-1.204;2023-05-27T05:51:28;17.42;;;3.30;;
19406;SDS011;9839;53.364;-1.204;2023-05-27T05:53:54;13.55;;;3.00;;
19406;SDS011;9839;53.364;-1.204;2023-05-27T05:56:19;16.92;;;3.08;;
19406;SDS011;9839;53.364;-1.204;2023-05-27T05:58:45;12.57;;;3.83;;
19406;SDS011;9839;53.364;-1.204;2023-05-27T06:01:10;12.93;;;3.72;;
19406;SDS011;9839;53.364;-1.204;2023-05-27T06:03:36;9.73;;;2.75;;
19406;SDS011;9839;53.364;-1.204;2023-05-27T06:06:01;10.55;;;3.95;;
19406;SDS011;9839;53.364;-1.204;2023-05-27T06:08:27;16.08;;;3.78;;
19406;SDS011;9839;53.364;-1.204;2023-05-27T06:10:53;13.05;;;3.80;;
19406;SDS011;9839;53.364;-1.204;2023-05-27T06:13:18;11.32;;;3.13;;
19406;SDS011;9839;53.364;-1.204;2023-05-27T06:15:44;16.02;;;3.20;;
19406;SDS011;9839;53.364;-1.204;2023-05-27T06:18:09;9.23;;;2.67;;
19406;SDS011;9839;53.364;-1.204;2023-05-27T06:20:35;13.30;;;3.03;;
19406;SDS011;9839;53.364;-1.204;2023-05-27T06:23:01;12.65;;;3.20;;
19406;SDS011;9839;53.364;-1.204;2023-05-27T06:25:26;11.20;;;2.67;;
19406;SDS011;9839;53.364;-1.204;2023-05-27T06:27:51;11.00;;;3.00;;
19406;SDS011;9839;53.364;-1.204;2023-05-27T06:30:17;11.07;;;2.83;;
19406;SDS011;9839;53.364;-1.204;2023-05-27T06:32:42;12.52;;;3.47;;
19406;SDS011;9839;53.364;-1.204;2023-05-27T06:35:08;12.18;;;3.10;;
19406;SDS011;9839;53.364;-1.204;2023-05-27T06:37:33;10.70;;;3.08;;
19406;SDS011;9839;53.364;-1.204;2023-05-27T06:39:59;16.48;;;2.90;;
19406;SDS011;9839;53.364;-1.204;2023-05-27T06:42:24;15.88;;;3.63;;
19406;SDS011;9839;53.364;-1.204;2023-05-27T06:44:50;12.25;;;3.10;;
19406;SDS011;9839;53.364;-1.204;2023-05-27T06:47:15;13.02;;;2.78;;
19406;SDS011;9839;53.364;-1.204;2023-05-27T06:49:41;17.70;;;3.75;;
19406;SDS011;9839;53.364;-1.204;2023-05-27T06:52:06;8.98;;;2.78;;
19406;SDS011;9839;53.364;-1.204;2023-05-27T06:54:32;14.50;;;2.80;;
19406;SDS011;9839;53.364;-1.204;2023-05-27T06:56:58;16.50;;;3.10;;
19406;SDS011;9839;53.364;-1.204;2023-05-27T06:59:23;12.05;;;2.67;;
19406;SDS011;9839;53.364;-1.204;2023-05-27T07:01:49;12.77;;;2.88;;
19406;SDS011;9839;53.364;-1.204;2023-05-27T07:04:15;16.20;;;3.75;;
19406;SDS011;9839;53.364;-1.204;2023-05-27T07:06:40;13.43;;;2.65;;
19406;SDS011;9839;53.364;-1.204;2023-05-27T07:09:06;9.15;;;2.85;;
19406;SDS011;9839;53.364;-1.204;2023-05-27T07:11:31;13.10;;;3.20;;
19406;SDS011;9839;53.364;-1.204;2023-05-27T07:13:57;16.17;;;2.90;;
19406;SDS011;9839;53.364;-1.204;2023-05-27T07:16:22;13.13;;;2.58;;
19406;SDS011;9839;53.364;-1.204;2023-05-27T07:18:48;12.85;;;3.00;;
19406;SDS011;9839;53.364;-1.204;2023-05-27T07:21:13;8.88;;;2.70;;
19406;SDS011;9839;53.364;-1.204;2023-05-27T07:23:39;15.85;;;3.05;;
19406;SDS011;9839;53.364;-1.204;2023-05-27T07:26:04;13.52;;;3.33;;
19406;SDS011;9839;53.364;-1.204;2023-05-27T07:28:30;9.77;;;2.63;;
19406;SDS011;9839;53.364;-1.204;2023-05-27T07:30:55;12.90;;;2.90;;
19406;SDS011;9839;53.364;-1.204;2023-05-27T07:33:21;12.60;;;2.53;;
19406;SDS011;9839;53.364;-1.204;2023-05-27T07:35:46;11.32;;;2.95;;
19406;SDS011;9839;53.364;-1.204;2023-05-27T07:38:12;9.57;;;2.95;;
19406;SDS011;9839;53.364;-1.204;2023-05-27T07:40:37;8.85;;;2.58;;
19406;SDS011;9839;53.364;-1.204;2023-05-27T07:43:02;10.25;;;2.70;;
19406;SDS011;9839;53.364;-1.204;2023-05-27T07:45:28;7.95;;;2.58;;
19406;SDS011;9839;53.364;-1.204;2023-05-27T07:47:54;20.05;;;2.47;;
19406;SDS011;9839;53.364;-1.204;2023-05-27T07:50:19;14.02;;;3.17;;
19406;SDS011;9839;53.364;-1.204;2023-05-27T07:52:45;12.70;;;3.00;;
19406;SDS011;9839;53.364;-1.204;2023-05-27T07:55:10;11.65;;;2.72;;
19406;SDS011;9839;53.364;-1.204;2023-05-27T07:57:35;12.38;;;3.03;;
19406;SDS011;9839;53.364;-1.204;2023-05-27T08:00:02;9.00;;;2.55;;
19406;SDS011;9839;53.364;-1.204;2023-05-27T08:02:29;9.80;;;2.83;;
19406;SDS011;9839;53.364;-1.204;2023-05-27T08:04:55;10.25;;;3.38;;
19406;SDS011;9839;53.364;-1.204;2023-05-27T08:07:20;10.48;;;3.05;;
19406;SDS011;9839;53.364;-1.204;2023-05-27T08:09:46;13.52;;;3.40;;
19406;SDS011;9839;53.364;-1.204;2023-05-27T08:12:11;13.07;;;3.03;;
19406;SDS011;9839;53.364;-1.204;2023-05-27T08:14:38;20.20;;;3.35;;
19406;SDS011;9839;53.364;-1.204;2023-05-27T08:17:03;13.88;;;3.25;;
19406;SDS011;9839;53.364;-1.204;2023-05-27T08:19:29;13.90;;;2.95;;
19406;SDS011;9839;53.364;-1.204;2023-05-27T08:21:56;17.50;;;2.97;;
19406;SDS011;9839;53.364;-1.204;2023-05-27T08:24:22;14.52;;;2.92;;
19406;SDS011;9839;53.364;-1.204;2023-05-27T08:26:47;9.93;;;2.47;;
19406;SDS011;9839;53.364;-1.204;2023-05-27T08:29:13;15.77;;;3.53;;
19406;SDS011;9839;53.364;-1.204;2023-05-27T08:31:39;13.13;;;2.83;;
19406;SDS011;9839;53.364;-1.204;2023-05-27T08:34:05;15.15;;;3.17;;
19406;SDS011;9839;53.364;-1.204;2023-05-27T08:36:31;10.65;;;3.17;;
19406;SDS011;9839;53.364;-1.204;2023-05-27T08:38:58;14.43;;;3.30;;
19406;SDS011;9839;53.364;-1.204;2023-05-27T08:41:24;10.07;;;3.28;;
19406;SDS011;9839;53.364;-1.204;2023-05-27T08:43:52;11.30;;;2.70;;
19406;SDS011;9839;53.364;-1.204;2023-05-27T08:46:17;13.70;;;3.08;;
19406;SDS011;9839;53.364;-1.204;2023-05-27T08:48:43;13.02;;;3.53;;
19406;SDS011;9839;53.364;-1.204;2023-05-27T08:51:09;11.60;;;3.38;;
19406;SDS011;9839;53.364;-1.204;2023-05-27T08:53:35;12.15;;;2.95;;
19406;SDS011;9839;53.364;-1.204;2023-05-27T08:56:01;10.38;;;2.80;;
19406;SDS011;9839;53.364;-1.204;2023-05-27T08:58:26;13.52;;;2.78;;
19406;SDS011;9839;53.364;-1.204;2023-05-27T09:00:52;11.27;;;3.03;;
19406;SDS011;9839;53.364;-1.204;2023-05-27T09:03:18;7.25;;;2.72;;
19406;SDS011;9839;53.364;-1.204;2023-05-27T09:05:44;11.27;;;3.03;;
19406;SDS011;9839;53.364;-1.204;2023-05-27T09:08:09;12.60;;;2.67;;
19406;SDS011;9839;53.364;-1.204;2023-05-27T09:10:38;14.00;;;3.35;;
19406;SDS011;9839;53.364;-1.204;2023-05-27T09:13:04;9.63;;;3.03;;
19406;SDS011;9839;53.364;-1.204;2023-05-27T09:15:33;10.52;;;2.72;;
19406;SDS011;9839;53.364;-1.204;2023-05-27T09:18:01;11.02;;;2.72;;
19406;SDS011;9839;53.364;-1.204;2023-05-27T09:20:27;14.15;;;3.88;;
19406;SDS011;9839;53.364;-1.204;2023-05-27T09:22:57;18.17;;;3.53;;
19406;SDS011;9839;53.364;-1.204;2023-05-27T09:25:23;8.00;;;3.05;;
19406;SDS011;9839;53.364;-1.204;2023-05-27T09:27:49;12.23;;;2.92;;
19406;SDS011;9839;53.364;-1.204;2023-05-27T09:30:18;14.23;;;2.80;;
19406;SDS011;9839;53.364;-1.204;2023-05-27T09:32:44;11.38;;;3.10;;
19406;SDS011;9839;53.364;-1.204;2023-05-27T09:35:11;11.95;;;3.05;;
19406;SDS011;9839;53.364;-1.204;2023-05-27T09:37:37;9.82;;;3.22;;
19406;SDS011;9839;53.364;-1.204;2023-05-27T09:40:06;9.43;;;3.15;;
19406;SDS011;9839;53.364;-1.204;2023-05-27T09:42:39;9.93;;;3.03;;
19406;SDS011;9839;53.364;-1.204;2023-05-27T09:45:15;6.70;;;2.17;;
19406;SDS011;9839;53.364;-1.204;2023-05-27T09:47:48;13.25;;;2.88;;
19406;SDS011;9839;53.364;-1.204;2023-05-27T09:50:15;11.48;;;3.00;;
19406;SDS011;9839;53.364;-1.204;2023-05-27T09:52:42;9.45;;;2.67;;
19406;SDS011;9839;53.364;-1.204;2023-05-27T09:55:08;13.00;;;2.97;;
19406;SDS011;9839;53.364;-1.204;2023-05-27T09:57:34;13.00;;;3.20;;
19406;SDS011;9839;53.364;-1.204;2023-05-27T10:00:01;13.52;;;2.55;;
19406;SDS011;9839;53.364;-1.204;2023-05-27T10:02:39;13.68;;;3.17;;
19406;SDS011;9839;53.364;-1.204;2023-05-27T10:05:06;11.00;;;3.08;;
19406;SDS011;9839;53.364;-1.204;2023-05-27T10:07:42;10.02;;;2.60;;
19406;SDS011;9839;53.364;-1.204;2023-05-27T10:10:09;7.75;;;2.72;;
19406;SDS011;9839;53.364;-1.204;2023-05-27T10:12:36;8.55;;;2.80;;
19406;SDS011;9839;53.364;-1.204;2023-05-27T10:15:03;8.80;;;3.05;;
19406;SDS011;9839;53.364;-1.204;2023-05-27T10:17:40;8.75;;;2.25;;
19406;SDS011;9839;53.364;-1.204;2023-05-27T10:20:06;10.95;;;3.03;;
19406;SDS011;9839;53.364;-1.204;2023-05-27T10:22:42;10.30;;;2.85;;
19406;SDS011;9839;53.364;-1.204;2023-05-27T10:25:12;9.82;;;2.90;;
19406;SDS011;9839;53.364;-1.204;2023-05-27T10:27:47;12.63;;;3.10;;
19406;SDS011;9839;53.364;-1.204;2023-05-27T10:30:14;8.80;;;3.70;;
19406;SDS011;9839;53.364;-1.204;2023-05-27T10:32:44;10.75;;;3.15;;
19406;SDS011;9839;53.364;-1.204;2023-05-27T10:35:12;12.00;;;3.40;;
19406;SDS011;9839;53.364;-1.204;2023-05-27T10:37:37;8.57;;;2.75;;
19406;SDS011;9839;53.364;-1.204;2023-05-27T10:40:04;14.10;;;2.80;;
19406;SDS011;9839;53.364;-1.204;2023-05-27T10:42:31;11.80;;;3.53;;
19406;SDS011;9839;53.364;-1.204;2023-05-27T10:45:09;13.23;;;3.20;;
19406;SDS011;9839;53.364;-1.204;2023-05-27T10:47:38;10.63;;;3.10;;
19406;SDS011;9839;53.364;-1.204;2023-05-27T10:50:12;9.57;;;2.70;;
19406;SDS011;9839;53.364;-1.204;2023-05-27T10:52:39;13.30;;;2.80;;
19406;SDS011;9839;53.364;-1.204;2023-05-27T10:55:05;8.48;;;3.08;;
19406;SDS011;9839;53.364;-1.204;2023-05-27T10:57:31;13.63;;;3.45;;
19406;SDS011;9839;53.364;-1.204;2023-05-27T10:59:59;11.23;;;3.10;;
19406;SDS011;9839;53.364;-1.204;2023-05-27T11:02:34;9.05;;;3.20;;
19406;SDS011;9839;53.364;-1.204;2023-05-27T11:05:07;17.02;;;3.10;;
19406;SDS011;9839;53.364;-1.204;2023-05-27T11:07:33;11.88;;;3.00;;
19406;SDS011;9839;53.364;-1.204;2023-05-27T11:10:02;19.15;;;3.60;;
19406;SDS011;9839;53.364;-1.204;2023-05-27T11:12:27;11.63;;;2.90;;
19406;SDS011;9839;53.364;-1.204;2023-05-27T11:14:54;10.40;;;2.83;;
19406;SDS011;9839;53.364;-1.204;2023-05-27T11:17:20;8.75;;;2.67;;
19406;SDS011;9839;53.364;-1.204;2023-05-27T11:19:47;9.82;;;2.92;;
19406;SDS011;9839;53.364;-1.204;2023-05-27T11:22:14;13.02;;;3.05;;
19406;SDS011;9839;53.364;-1.204;2023-05-27T11:24:42;7.32;;;2.28;;
19406;SDS011;9839;53.364;-1.204;2023-05-27T11:27:10;10.55;;;2.50;;
19406;SDS011;9839;53.364;-1.204;2023-05-27T11:29:37;7.13;;;2.60;;
19406;SDS011;9839;53.364;-1.204;2023-05-27T11:32:03;9.00;;;2.30;;
19406;SDS011;9839;53.364;-1.204;2023-05-27T11:34:30;16.70;;;3.20;;
19406;SDS011;9839;53.364;-1.204;2023-05-27T11:37:00;8.02;;;2.47;;
19406;SDS011;9839;53.364;-1.204;2023-05-27T11:39:29;12.48;;;2.40;;
19406;SDS011;9839;53.364;-1.204;2023-05-27T11:41:55;10.60;;;3.20;;
19406;SDS011;9839;53.364;-1.204;2023-05-27T11:44:21;10.43;;;2.95;;
19406;SDS011;9839;53.364;-1.204;2023-05-27T11:46:47;6.82;;;2.60;;
19406;SDS011;9839;53.364;-1.204;2023-05-27T11:49:14;8.73;;;2.70;;
19406;SDS011;9839;53.364;-1.204;2023-05-27T11:51:41;13.82;;;2.35;;
19406;SDS011;9839;53.364;-1.204;2023-05-27T11:54:29;7.05;;;2.28;;
19406;SDS011;9839;53.364;-1.204;2023-05-27T11:56:56;7.15;;;2.50;;
19406;SDS011;9839;53.364;-1.204;2023-05-27T11:59:22;8.90;;;2.78;;
19406;SDS011;9839;53.364;-1.204;2023-05-27T12:01:48;10.88;;;2.65;;
19406;SDS011;9839;53.364;-1.204;2023-05-27T12:04:14;13.13;;;2.88;;
19406;SDS011;9839;53.364;-1.204;2023-05-27T12:06:40;6.38;;;2.45;;
19406;SDS011;9839;53.364;-1.204;2023-05-27T12:09:06;9.30;;;2.60;;
19406;SDS011;9839;53.364;-1.204;2023-05-27T12:11:32;10.23;;;3.25;;
19406;SDS011;9839;53.364;-1.204;2023-05-27T12:13:58;10.23;;;2.80;;
19406;SDS011;9839;53.364;-1.204;2023-05-27T12:16:23;8.15;;;2.47;;
19406;SDS011;9839;53.364;-1.204;2023-05-27T12:18:49;7.32;;;2.53;;
19406;SDS011;9839;53.364;-1.204;2023-05-27T12:21:15;8.15;;;2.65;;
19406;SDS011;9839;53.364;-1.204;2023-05-27T12:23:41;7.97;;;2.40;;
19406;SDS011;9839;53.364;-1.204;2023-05-27T12:26:06;8.57;;;2.75;;
19406;SDS011;9839;53.364;-1.204;2023-05-27T12:28:32;10.10;;;2.85;;
19406;SDS011;9839;53.364;-1.204;2023-05-27T12:30:57;9.73;;;3.63;;
19406;SDS011;9839;53.364;-1.204;2023-05-27T12:33:23;8.18;;;2.35;;
19406;SDS011;9839;53.364;-1.204;2023-05-27T12:35:49;10.35;;;2.78;;
19406;SDS011;9839;53.364;-1.204;2023-05-27T12:38:14;8.80;;;2.92;;
19406;SDS011;9839;53.364;-1.204;2023-05-27T12:40:40;12.68;;;3.17;;
19406;SDS011;9839;53.364;-1.204;2023-05-27T12:43:05;8.98;;;2.63;;
19406;SDS011;9839;53.364;-1.204;2023-05-27T12:45:31;13.52;;;2.65;;
19406;SDS011;9839;53.364;-1.204;2023-05-27T12:47:57;12.20;;;3.25;;
19406;SDS011;9839;53.364;-1.204;2023-05-27T12:50:26;9.07;;;2.80;;
19406;SDS011;9839;53.364;-1.204;2023-05-27T12:52:52;9.57;;;2.80;;
19406;SDS011;9839;53.364;-1.204;2023-05-27T12:55:18;4.43;;;2.22;;
19406;SDS011;9839;53.364;-1.204;2023-05-27T12:57:47;8.60;;;2.40;;
19406;SDS011;9839;53.364;-1.204;2023-05-27T13:00:14;8.60;;;2.58;;
19406;SDS011;9839;53.364;-1.204;2023-05-27T13:02:40;6.82;;;2.20;;
19406;SDS011;9839;53.364;-1.204;2023-05-27T13:05:07;6.70;;;2.65;;
19406;SDS011;9839;53.364;-1.204;2023-05-27T13:07:33;9.07;;;2.75;;
19406;SDS011;9839;53.364;-1.204;2023-05-27T13:10:02;9.35;;;2.42;;
19406;SDS011;9839;53.364;-1.204;2023-05-27T13:12:30;9.98;;;2.65;;
19406;SDS011;9839;53.364;-1.204;2023-05-27T13:14:57;8.80;;;2.50;;
19406;SDS011;9839;53.364;-1.204;2023-05-27T13:17:23;6.53;;;2.53;;
19406;SDS011;9839;53.364;-1.204;2023-05-27T13:19:49;5.50;;;2.50;;
19406;SDS011;9839;53.364;-1.204;2023-05-27T13:22:14;5.53;;;2.35;;
19406;SDS011;9839;53.364;-1.204;2023-05-27T13:24:40;7.45;;;2.17;;
19406;SDS011;9839;53.364;-1.204;2023-05-27T13:27:06;8.88;;;2.58;;
19406;SDS011;9839;53.364;-1.204;2023-05-27T13:29:31;5.40;;;2.35;;
19406;SDS011;9839;53.364;-1.204;2023-05-27T13:31:57;7.72;;;2.85;;
19406;SDS011;9839;53.364;-1.204;2023-05-27T13:34:23;6.75;;;2.42;;
19406;SDS011;9839;53.364;-1.204;2023-05-27T13:36:48;9.10;;;2.58;;
19406;SDS011;9839;53.364;-1.204;2023-05-27T13:39:13;10.90;;;2.53;;
19406;SDS011;9839;53.364;-1.204;2023-05-27T13:41:39;5.85;;;2.30;;
19406;SDS011;9839;53.364;-1.204;2023-05-27T13:44:04;4.50;;;1.95;;
19406;SDS011;9839;53.364;-1.204;2023-05-27T13:46:30;6.47;;;2.42;;
19406;SDS011;9839;53.364;-1.204;2023-05-27T13:48:56;8.63;;;2.13;;
19406;SDS011;9839;53.364;-1.204;2023-05-27T13:51:21;4.72;;;2.13;;
19406;SDS011;9839;53.364;-1.204;2023-05-27T13:53:47;8.43;;;2.70;;
19406;SDS011;9839;53.364;-1.204;2023-05-27T13:56:13;6.13;;;2.38;;
19406;SDS011;9839;53.364;-1.204;2023-05-27T13:58:39;8.65;;;2.58;;
19406;SDS011;9839;53.364;-1.204;2023-05-27T14:01:04;5.80;;;2.30;;
19406;SDS011;9839;53.364;-1.204;2023-05-27T14:03:30;6.55;;;2.22;;
19406;SDS011;9839;53.364;-1.204;2023-05-27T14:05:55;6.50;;;2.40;;
19406;SDS011;9839;53.364;-1.204;2023-05-27T14:08:21;6.75;;;2.30;;
19406;SDS011;9839;53.364;-1.204;2023-05-27T14:10:47;8.77;;;2.60;;
19406;SDS011;9839;53.364;-1.204;2023-05-27T14:13:12;7.93;;;2.65;;
19406;SDS011;9839;53.364;-1.204;2023-05-27T14:15:38;5.80;;;2.53;;
19406;SDS011;9839;53.364;-1.204;2023-05-27T14:18:04;6.43;;;2.45;;
19406;SDS011;9839;53.364;-1.204;2023-05-27T14:20:30;9.00;;;2.72;;
19406;SDS011;9839;53.364;-1.204;2023-05-27T14:22:56;7.97;;;2.42;;
19406;SDS011;9839;53.364;-1.204;2023-05-27T14:25:24;10.40;;;3.33;;
19406;SDS011;9839;53.364;-1.204;2023-05-27T14:27:49;7.25;;;3.28;;
19406;SDS011;9839;53.364;-1.204;2023-05-27T14:30:15;11.32;;;2.58;;
19406;SDS011;9839;53.364;-1.204;2023-05-27T14:32:41;8.10;;;2.70;;
19406;SDS011;9839;53.364;-1.204;2023-05-27T14:35:06;7.47;;;2.72;;
19406;SDS011;9839;53.364;-1.204;2023-05-27T14:37:32;5.93;;;2.70;;
19406;SDS011;9839;53.364;-1.204;2023-05-27T14:39:58;9.05;;;2.47;;
19406;SDS011;9839;53.364;-1.204;2023-05-27T14:42:23;6.18;;;2.30;;